createdAt,value
2018-11-03T00:00:08.471Z,1023.40
2018-11-03T00:01:08.423Z,1023.37
2018-11-03T00:02:08.379Z,1023.36
2018-11-03T00:03:08.328Z,1023.38
2018-11-03T00:04:08.284Z,1023.42
2018-11-03T00:05:08.231Z,1023.43
2018-11-03T00:06:08.185Z,1023.44
2018-11-03T00:07:08.135Z,1023.46
2018-11-03T00:08:08.089Z,1023.43
2018-11-03T00:09:08.041Z,1023.43
2018-11-03T00:10:07.994Z,1023.40
2018-11-03T00:11:07.945Z,1023.33
2018-11-03T00:12:07.898Z,1023.32
2018-11-03T00:13:07.851Z,1023.35
2018-11-03T00:14:07.802Z,1023.34
2018-11-03T00:15:07.754Z,1023.34
2018-11-03T00:16:07.707Z,1023.34
2018-11-03T00:17:07.660Z,1023.33
2018-11-03T00:18:07.612Z,1023.33
2018-11-03T00:19:07.568Z,1023.33
2018-11-03T00:20:07.520Z,1023.30
2018-11-03T00:21:07.467Z,1023.27
2018-11-03T00:22:07.421Z,1023.28
2018-11-03T00:23:07.373Z,1023.28
2018-11-03T00:24:07.325Z,1023.30
2018-11-03T00:25:07.281Z,1023.35
2018-11-03T00:26:07.230Z,1023.33
2018-11-03T00:27:07.185Z,1023.34
2018-11-03T00:28:07.134Z,1023.32
2018-11-03T00:29:07.088Z,1023.31
2018-11-03T00:30:07.040Z,1023.37
2018-11-03T00:31:06.992Z,1023.40
2018-11-03T00:32:06.945Z,1023.35
2018-11-03T00:33:06.896Z,1023.41
2018-11-03T00:34:06.849Z,1023.40
2018-11-03T00:35:06.803Z,1023.41
2018-11-03T00:36:06.752Z,1023.39
2018-11-03T00:37:06.706Z,1023.40
2018-11-03T00:38:06.658Z,1023.40
2018-11-03T00:39:06.609Z,1023.37
2018-11-03T00:40:06.562Z,1023.35
2018-11-03T00:41:06.514Z,1023.33
2018-11-03T00:42:06.467Z,1023.31
2018-11-03T00:43:06.422Z,1023.27
2018-11-03T00:44:06.371Z,1023.29
2018-11-03T00:45:06.324Z,1023.31
2018-11-03T00:46:06.276Z,1023.30
2018-11-03T00:47:06.228Z,1023.28
2018-11-03T00:48:06.180Z,1023.31
2018-11-03T00:49:06.133Z,1023.33
2018-11-03T00:50:06.085Z,1023.37
2018-11-03T00:51:06.036Z,1023.38
2018-11-03T00:52:05.989Z,1023.38
2018-11-03T00:53:05.977Z,1023.40
2018-11-03T00:54:05.894Z,1023.41
2018-11-03T00:55:05.846Z,1023.42
2018-11-03T00:56:05.798Z,1023.39
2018-11-03T00:57:05.752Z,1023.40
2018-11-03T00:58:05.710Z,1023.39
2018-11-03T00:59:05.655Z,1023.40
2018-11-03T01:00:05.607Z,1023.41
2018-11-03T01:01:05.560Z,1023.42
2018-11-03T01:02:05.513Z,1023.42
2018-11-03T01:03:05.466Z,1023.38
2018-11-03T01:04:05.416Z,1023.41
2018-11-03T01:05:05.368Z,1023.38
2018-11-03T01:06:05.321Z,1023.37
2018-11-03T01:07:05.273Z,1023.38
2018-11-03T01:08:05.227Z,1023.39
2018-11-03T01:09:05.178Z,1023.40
2018-11-03T01:10:05.133Z,1023.36
2018-11-03T01:11:05.084Z,1023.33
2018-11-03T01:12:05.034Z,1023.36
2018-11-03T01:13:04.987Z,1023.39
2018-11-03T01:14:04.991Z,1023.36
2018-11-03T01:15:04.906Z,1023.36
2018-11-03T01:16:04.843Z,1023.37
2018-11-03T01:17:04.796Z,1023.39
2018-11-03T01:18:04.750Z,1023.35
2018-11-03T01:19:04.700Z,1023.37
2018-11-03T01:20:04.652Z,1023.40
2018-11-03T01:21:04.605Z,1023.41
2018-11-03T01:22:04.559Z,1023.40
2018-11-03T01:23:04.509Z,1023.39
2018-11-03T01:24:04.469Z,1023.39
2018-11-03T01:25:04.414Z,1023.40
2018-11-03T01:26:04.373Z,1023.39
2018-11-03T01:27:04.319Z,1023.40
2018-11-03T01:28:04.273Z,1023.36
2018-11-03T01:29:04.226Z,1023.37
2018-11-03T01:30:04.184Z,1023.39
2018-11-03T01:31:04.133Z,1023.43
2018-11-03T01:32:04.080Z,1023.44
2018-11-03T01:33:04.034Z,1023.42
2018-11-03T01:34:03.987Z,1023.46
2018-11-03T01:35:03.936Z,1023.46
2018-11-03T01:36:03.889Z,1023.44
2018-11-03T01:37:03.842Z,1023.45
2018-11-03T01:38:03.794Z,1023.47
2018-11-03T01:39:03.745Z,1023.48
2018-11-03T01:40:03.698Z,1023.53
2018-11-03T01:41:03.651Z,1023.56
2018-11-03T01:42:03.603Z,1023.56
2018-11-03T01:43:03.555Z,1023.54
2018-11-03T01:44:03.508Z,1023.59
2018-11-03T01:45:03.499Z,1023.56
2018-11-03T01:46:03.412Z,1023.54
2018-11-03T01:47:03.363Z,1023.60
2018-11-03T01:48:03.316Z,1023.60
2018-11-03T01:49:03.268Z,1023.56
2018-11-03T01:50:03.222Z,1023.55
2018-11-03T01:51:03.173Z,1023.53
2018-11-03T01:52:03.125Z,1023.54
2018-11-03T01:53:03.078Z,1023.56
2018-11-03T01:54:03.058Z,1023.55
2018-11-03T01:55:02.983Z,1023.59
2018-11-03T01:56:02.935Z,1023.66
2018-11-03T01:57:02.892Z,1023.65
2018-11-03T01:58:02.840Z,1023.66
2018-11-03T01:59:02.794Z,1023.66
2018-11-03T02:00:02.745Z,1023.65
2018-11-03T02:01:02.696Z,1023.59
2018-11-03T02:02:02.652Z,1023.58
2018-11-03T02:03:02.601Z,1023.56
2018-11-03T02:04:02.553Z,1023.58
2018-11-03T02:05:02.510Z,1023.60
2018-11-03T02:06:02.458Z,1023.58
2018-11-03T02:07:02.725Z,1023.57
2018-11-03T02:08:02.362Z,1023.58
2018-11-03T02:09:02.635Z,1023.54
2018-11-03T02:10:02.584Z,1023.54
2018-11-03T02:11:02.219Z,1023.54
2018-11-03T02:12:02.172Z,1023.53
2018-11-03T02:13:02.124Z,1023.56
2018-11-03T02:14:02.077Z,1023.53
2018-11-03T02:15:02.028Z,1023.53
2018-11-03T02:16:01.980Z,1023.53
2018-11-03T02:17:01.933Z,1023.58
2018-11-03T02:18:01.886Z,1023.66
2018-11-03T02:19:01.841Z,1023.67
2018-11-03T02:20:01.790Z,1023.70
2018-11-03T02:21:01.743Z,1023.66
2018-11-03T02:22:01.695Z,1023.63
2018-11-03T02:23:01.646Z,1023.68
2018-11-03T02:24:01.600Z,1023.70
2018-11-03T02:25:01.652Z,1023.71
2018-11-03T02:26:01.503Z,1023.70
2018-11-03T02:27:01.455Z,1023.70
2018-11-03T02:28:01.409Z,1023.74
2018-11-03T02:29:01.360Z,1023.73
2018-11-03T02:30:01.312Z,1023.77
2018-11-03T02:31:01.270Z,1023.78
2018-11-03T02:32:01.217Z,1023.79
2018-11-03T02:33:01.171Z,1023.83
2018-11-03T02:34:01.122Z,1023.82
2018-11-03T02:35:01.073Z,1023.84
2018-11-03T02:36:01.025Z,1023.84
2018-11-03T02:37:01.028Z,1023.84
2018-11-03T02:38:00.931Z,1023.88
2018-11-03T02:39:00.883Z,1023.91
2018-11-03T02:40:00.837Z,1023.87
2018-11-03T02:41:00.819Z,1023.89
2018-11-03T02:42:00.740Z,1023.92
2018-11-03T02:43:00.692Z,1023.90
2018-11-03T02:44:00.644Z,1023.94
2018-11-03T02:45:00.598Z,1023.93
2018-11-03T02:46:00.549Z,1023.94
2018-11-03T02:47:00.500Z,1023.97
2018-11-03T02:48:00.503Z,1023.97
2018-11-03T02:49:00.405Z,1023.99
2018-11-03T02:50:00.358Z,1023.97
2018-11-03T02:51:00.309Z,1023.98
2018-11-03T02:52:00.262Z,1024.00
2018-11-03T02:53:00.252Z,1024.00
2018-11-03T02:54:00.167Z,1024.01
2018-11-03T02:55:00.168Z,1024.05
2018-11-03T02:56:00.071Z,1024.02
2018-11-03T02:57:00.026Z,1024.03
2018-11-03T02:57:59.976Z,1024.07
2018-11-03T02:58:59.940Z,1024.02
2018-11-03T02:59:59.887Z,1024.03
2018-11-03T03:00:59.832Z,1024.04
2018-11-03T03:01:59.785Z,1024.04
2018-11-03T03:02:59.736Z,1024.04
2018-11-03T03:03:59.689Z,1024.03
2018-11-03T03:04:59.641Z,1024.06
2018-11-03T03:05:59.594Z,1024.05
2018-11-03T03:06:59.583Z,1024.09
2018-11-03T03:07:59.497Z,1024.14
2018-11-03T03:08:59.450Z,1024.19
2018-11-03T03:09:59.403Z,1024.24
2018-11-03T03:10:59.385Z,1024.28
2018-11-03T03:11:59.307Z,1024.32
2018-11-03T03:12:59.259Z,1024.37
2018-11-03T03:13:59.212Z,1024.42
2018-11-03T03:14:59.163Z,1024.39
2018-11-03T03:15:59.115Z,1024.42
2018-11-03T03:16:59.073Z,1024.37
2018-11-03T03:17:59.021Z,1024.36
2018-11-03T03:18:58.973Z,1024.35
2018-11-03T03:19:58.924Z,1024.36
2018-11-03T03:20:58.877Z,1024.35
2018-11-03T03:21:58.830Z,1024.34
2018-11-03T03:22:58.781Z,1024.35
2018-11-03T03:23:58.734Z,1024.35
2018-11-03T03:24:58.687Z,1024.37
2018-11-03T03:25:58.641Z,1024.36
2018-11-03T03:26:58.590Z,1024.34
2018-11-03T03:27:58.543Z,1024.38
2018-11-03T03:28:58.557Z,1024.38
2018-11-03T03:29:58.448Z,1024.39
2018-11-03T03:30:58.401Z,1024.40
2018-11-03T03:31:58.352Z,1024.39
2018-11-03T03:32:58.304Z,1024.40
2018-11-03T03:33:58.259Z,1024.44
2018-11-03T03:34:58.259Z,1024.40
2018-11-03T03:35:58.161Z,1024.35
2018-11-03T03:36:58.116Z,1024.40
2018-11-03T03:37:58.067Z,1024.31
2018-11-03T03:38:58.017Z,1024.34
2018-11-03T03:39:57.970Z,1024.34
2018-11-03T03:40:57.923Z,1024.35
2018-11-03T03:41:57.891Z,1024.36
2018-11-03T03:42:57.826Z,1024.34
2018-11-03T03:43:57.779Z,1024.36
2018-11-03T03:44:57.732Z,1024.33
2018-11-03T03:45:57.684Z,1024.31
2018-11-03T03:46:57.638Z,1024.32
2018-11-03T03:47:57.588Z,1024.27
2018-11-03T03:48:57.541Z,1024.30
2018-11-03T03:49:57.493Z,1024.32
2018-11-03T03:50:57.454Z,1024.32
2018-11-03T03:51:57.397Z,1024.34
2018-11-03T03:52:57.350Z,1024.30
2018-11-03T03:53:57.304Z,1024.33
2018-11-03T03:54:57.253Z,1024.29
2018-11-03T03:55:57.222Z,1024.31
2018-11-03T03:56:57.361Z,1024.34
2018-11-03T03:57:57.111Z,1024.36
2018-11-03T03:58:57.063Z,1024.37
2018-11-03T03:59:57.015Z,1024.38
2018-11-03T04:00:56.968Z,1024.34
2018-11-03T04:01:56.920Z,1024.34
2018-11-03T04:02:56.874Z,1024.28
2018-11-03T04:03:56.831Z,1024.25
2018-11-03T04:04:56.777Z,1024.23
2018-11-03T04:05:56.733Z,1024.23
2018-11-03T04:06:56.686Z,1024.21
2018-11-03T04:07:56.641Z,1024.18
2018-11-03T04:08:56.586Z,1024.19
2018-11-03T04:09:56.538Z,1024.15
2018-11-03T04:10:56.490Z,1024.23
2018-11-03T04:11:56.451Z,1024.18
2018-11-03T04:12:56.395Z,1024.17
2018-11-03T04:13:56.447Z,1024.20
2018-11-03T04:14:56.299Z,1024.13
2018-11-03T04:15:56.252Z,1024.18
2018-11-03T04:16:56.212Z,1024.18
2018-11-03T04:17:56.157Z,1024.16
2018-11-03T04:18:56.150Z,1024.17
2018-11-03T04:19:56.060Z,1024.11
2018-11-03T04:20:56.014Z,1024.11
2018-11-03T04:21:55.965Z,1024.12
2018-11-03T04:22:55.917Z,1024.13
2018-11-03T04:23:55.869Z,1024.14
2018-11-03T04:24:55.822Z,1024.17
2018-11-03T04:25:55.825Z,1024.19
2018-11-03T04:26:55.726Z,1024.26
2018-11-03T04:27:55.678Z,1024.23
2018-11-03T04:28:55.630Z,1024.24
2018-11-03T04:29:55.589Z,1024.27
2018-11-03T04:30:55.535Z,1024.32
2018-11-03T04:31:55.487Z,1024.29
2018-11-03T04:32:55.440Z,1024.32
2018-11-03T04:33:55.392Z,1024.30
2018-11-03T04:34:55.345Z,1024.30
2018-11-03T04:35:55.296Z,1024.32
2018-11-03T04:36:55.249Z,1024.33
2018-11-03T04:37:55.259Z,1024.33
2018-11-03T04:38:55.153Z,1024.37
2018-11-03T04:39:55.105Z,1024.35
2018-11-03T04:40:55.058Z,1024.36
2018-11-03T04:41:55.010Z,1024.37
2018-11-03T04:42:54.966Z,1024.40
2018-11-03T04:43:54.916Z,1024.41
2018-11-03T04:44:54.866Z,1024.40
2018-11-03T04:45:54.820Z,1024.38
2018-11-03T04:46:54.771Z,1024.43
2018-11-03T04:47:54.723Z,1024.43
2018-11-03T04:48:54.677Z,1024.45
2018-11-03T04:49:54.628Z,1024.48
2018-11-03T04:50:54.597Z,1024.48
2018-11-03T04:51:54.535Z,1024.55
2018-11-03T04:52:54.488Z,1024.53
2018-11-03T04:53:54.437Z,1024.51
2018-11-03T04:54:54.421Z,1024.53
2018-11-03T04:55:54.341Z,1024.52
2018-11-03T04:56:54.301Z,1024.54
2018-11-03T04:57:54.247Z,1024.55
2018-11-03T04:58:54.197Z,1024.55
2018-11-03T04:59:54.150Z,1024.58
2018-11-03T05:00:54.102Z,1024.59
2018-11-03T05:01:54.055Z,1024.62
2018-11-03T05:02:54.006Z,1024.65
2018-11-03T05:03:53.959Z,1024.63
2018-11-03T05:04:53.912Z,1024.67
2018-11-03T05:05:53.864Z,1024.64
2018-11-03T05:06:53.842Z,1024.63
2018-11-03T05:07:53.767Z,1024.61
2018-11-03T05:08:53.720Z,1024.64
2018-11-03T05:09:53.776Z,1024.60
2018-11-03T05:10:53.624Z,1024.63
2018-11-03T05:11:53.577Z,1024.63
2018-11-03T05:12:53.529Z,1024.65
2018-11-03T05:13:53.482Z,1024.65
2018-11-03T05:14:53.433Z,1024.65
2018-11-03T05:15:53.385Z,1024.64
2018-11-03T05:16:53.338Z,1024.66
2018-11-03T05:17:53.321Z,1024.68
2018-11-03T05:18:53.245Z,1024.69
2018-11-03T05:19:53.194Z,1024.67
2018-11-03T05:20:53.147Z,1024.67
2018-11-03T05:21:53.115Z,1024.65
2018-11-03T05:22:53.051Z,1024.64
2018-11-03T05:23:53.004Z,1024.65
2018-11-03T05:24:52.956Z,1024.61
2018-11-03T05:25:52.910Z,1024.66
2018-11-03T05:26:52.860Z,1024.66
2018-11-03T05:27:52.834Z,1024.65
2018-11-03T05:28:52.767Z,1024.64
2018-11-03T05:29:52.719Z,1024.65
2018-11-03T05:30:52.677Z,1024.67
2018-11-03T05:31:52.621Z,1024.69
2018-11-03T05:32:52.574Z,1024.68
2018-11-03T05:33:52.525Z,1024.70
2018-11-03T05:34:52.477Z,1024.67
2018-11-03T05:35:52.429Z,1024.67
2018-11-03T05:36:52.383Z,1024.68
2018-11-03T05:37:52.485Z,1024.70
2018-11-03T05:38:52.289Z,1024.70
2018-11-03T05:39:52.239Z,1024.70
2018-11-03T05:40:52.191Z,1024.69
2018-11-03T05:41:52.143Z,1024.70
2018-11-03T05:42:52.101Z,1024.70
2018-11-03T05:43:52.047Z,1024.75
2018-11-03T05:44:52.031Z,1024.74
2018-11-03T05:45:51.952Z,1024.77
2018-11-03T05:46:51.904Z,1024.77
2018-11-03T05:47:51.856Z,1024.79
2018-11-03T05:48:51.808Z,1024.79
2018-11-03T05:49:51.761Z,1024.81
2018-11-03T05:50:51.713Z,1024.80
2018-11-03T05:51:51.666Z,1024.82
2018-11-03T05:52:51.617Z,1024.81
2018-11-03T05:53:51.570Z,1024.79
2018-11-03T05:54:51.521Z,1024.79
2018-11-03T05:55:51.478Z,1024.77
2018-11-03T05:56:51.451Z,1024.78
2018-11-03T05:57:51.379Z,1024.81
2018-11-03T05:58:51.354Z,1024.80
2018-11-03T05:59:51.285Z,1024.84
2018-11-03T06:00:51.236Z,1024.82
2018-11-03T06:01:51.189Z,1024.81
2018-11-03T06:02:51.139Z,1024.83
2018-11-03T06:03:51.092Z,1024.81
2018-11-03T06:04:51.044Z,1024.81
2018-11-03T06:05:50.997Z,1024.80
2018-11-03T06:06:50.949Z,1024.85
2018-11-03T06:07:50.901Z,1024.81
2018-11-03T06:08:50.933Z,1024.83
2018-11-03T06:09:50.812Z,1024.85
2018-11-03T06:10:50.757Z,1024.88
2018-11-03T06:11:50.710Z,1024.89
2018-11-03T06:12:50.684Z,1024.88
2018-11-03T06:13:50.621Z,1024.92
2018-11-03T06:14:50.566Z,1024.92
2018-11-03T06:15:50.518Z,1024.89
2018-11-03T06:16:50.470Z,1024.87
2018-11-03T06:17:50.423Z,1024.87
2018-11-03T06:18:50.375Z,1024.86
2018-11-03T06:19:50.327Z,1024.88
2018-11-03T06:20:50.287Z,1024.86
2018-11-03T06:21:50.233Z,1024.91
2018-11-03T06:22:50.192Z,1024.90
2018-11-03T06:23:50.137Z,1024.91
2018-11-03T06:24:50.089Z,1024.96
2018-11-03T06:25:50.046Z,1024.95
2018-11-03T06:26:49.993Z,1024.96
2018-11-03T06:27:50.028Z,1024.97
2018-11-03T06:28:49.902Z,1025.00
2018-11-03T06:29:49.849Z,1025.03
2018-11-03T06:30:49.801Z,1025.06
2018-11-03T06:31:49.753Z,1025.07
2018-11-03T06:32:49.706Z,1025.11
2018-11-03T06:33:49.658Z,1025.09
2018-11-03T06:34:49.610Z,1025.16
2018-11-03T06:35:49.563Z,1025.14
2018-11-03T06:36:49.515Z,1025.15
2018-11-03T06:37:49.467Z,1025.11
2018-11-03T06:38:49.439Z,1025.16
2018-11-03T06:39:49.372Z,1025.18
2018-11-03T06:40:49.324Z,1025.22
2018-11-03T06:41:49.276Z,1025.22
2018-11-03T06:42:49.228Z,1025.22
2018-11-03T06:43:49.180Z,1025.24
2018-11-03T06:44:49.133Z,1025.26
2018-11-03T06:45:49.085Z,1025.29
2018-11-03T06:46:49.038Z,1025.26
2018-11-03T06:47:48.989Z,1025.29
2018-11-03T06:48:48.943Z,1025.33
2018-11-03T06:49:48.894Z,1025.33
2018-11-03T06:50:48.845Z,1025.31
2018-11-03T06:51:48.797Z,1025.32
2018-11-03T06:52:48.750Z,1025.35
2018-11-03T06:53:48.702Z,1025.34
2018-11-03T06:54:48.655Z,1025.37
2018-11-03T06:55:48.606Z,1025.37
2018-11-03T06:56:48.559Z,1025.39
2018-11-03T06:57:48.513Z,1025.40
2018-11-03T06:58:48.463Z,1025.41
2018-11-03T06:59:48.415Z,1025.41
2018-11-03T07:00:48.368Z,1025.39
2018-11-03T07:01:48.637Z,1025.44
2018-11-03T07:02:48.322Z,1025.39
2018-11-03T07:03:48.224Z,1025.43
2018-11-03T07:04:48.177Z,1025.46
2018-11-03T07:05:48.129Z,1025.49
2018-11-03T07:06:48.131Z,1025.49
2018-11-03T07:07:48.033Z,1025.48
2018-11-03T07:08:47.986Z,1025.53
2018-11-03T07:09:47.938Z,1025.55
2018-11-03T07:10:47.893Z,1025.54
2018-11-03T07:11:47.859Z,1025.59
2018-11-03T07:12:47.824Z,1025.56
2018-11-03T07:13:47.747Z,1025.60
2018-11-03T07:14:47.699Z,1025.61
2018-11-03T07:15:47.652Z,1025.57
2018-11-03T07:16:47.609Z,1025.58
2018-11-03T07:17:47.556Z,1025.58
2018-11-03T07:18:47.508Z,1025.55
2018-11-03T07:19:47.460Z,1025.54
2018-11-03T07:20:47.413Z,1025.52
2018-11-03T07:21:47.396Z,1025.52
2018-11-03T07:22:47.317Z,1025.52
2018-11-03T07:23:47.269Z,1025.50
2018-11-03T07:24:47.222Z,1025.51
2018-11-03T07:25:47.175Z,1025.51
2018-11-03T07:26:47.126Z,1025.50
2018-11-03T07:27:47.078Z,1025.48
2018-11-03T07:28:47.032Z,1025.49
2018-11-03T07:29:47.091Z,1025.52
2018-11-03T07:30:46.935Z,1025.50
2018-11-03T07:31:46.890Z,1025.51
2018-11-03T07:32:46.840Z,1025.51
2018-11-03T07:33:46.796Z,1025.55
2018-11-03T07:34:46.744Z,1025.58
2018-11-03T07:35:46.710Z,1025.57
2018-11-03T07:36:46.653Z,1025.59
2018-11-03T07:37:46.601Z,1025.60
2018-11-03T07:38:46.555Z,1025.58
2018-11-03T07:39:46.505Z,1025.59
2018-11-03T07:40:46.530Z,1025.60
2018-11-03T07:41:46.411Z,1025.58
2018-11-03T07:42:46.397Z,1025.60
2018-11-03T07:43:46.315Z,1025.58
2018-11-03T07:44:46.267Z,1025.61
2018-11-03T07:45:46.220Z,1025.59
2018-11-03T07:46:46.172Z,1025.63
2018-11-03T07:47:46.147Z,1025.66
2018-11-03T07:48:46.243Z,1025.64
2018-11-03T07:49:46.029Z,1025.66
2018-11-03T07:50:45.981Z,1025.65
2018-11-03T07:51:45.933Z,1025.67
2018-11-03T07:52:45.887Z,1025.64
2018-11-03T07:53:45.838Z,1025.67
2018-11-03T07:54:45.883Z,1025.65
2018-11-03T07:55:45.743Z,1025.65
2018-11-03T07:56:45.695Z,1025.65
2018-11-03T07:57:45.672Z,1025.66
2018-11-03T07:58:45.600Z,1025.67
2018-11-03T07:59:45.583Z,1025.72
2018-11-03T08:00:45.698Z,1025.70
2018-11-03T08:01:45.457Z,1025.69
2018-11-03T08:02:45.408Z,1025.67
2018-11-03T08:03:45.361Z,1025.71
2018-11-03T08:04:45.316Z,1025.66
2018-11-03T08:05:45.266Z,1025.68
2018-11-03T08:06:45.217Z,1025.68
2018-11-03T08:07:45.170Z,1025.65
2018-11-03T08:08:45.127Z,1025.67
2018-11-03T08:09:45.117Z,1025.63
2018-11-03T08:10:45.027Z,1025.64
2018-11-03T08:11:44.986Z,1025.60
2018-11-03T08:12:44.943Z,1025.63
2018-11-03T08:13:44.885Z,1025.62
2018-11-03T08:14:44.836Z,1025.63
2018-11-03T08:15:44.809Z,1025.61
2018-11-03T08:16:44.742Z,1025.68
2018-11-03T08:17:44.694Z,1025.65
2018-11-03T08:18:44.646Z,1025.66
2018-11-03T08:19:44.598Z,1025.63
2018-11-03T08:20:44.551Z,1025.63
2018-11-03T08:21:44.503Z,1025.66
2018-11-03T08:22:44.455Z,1025.63
2018-11-03T08:23:44.425Z,1025.64
2018-11-03T08:24:44.361Z,1025.63
2018-11-03T08:25:44.313Z,1025.66
2018-11-03T08:26:44.286Z,1025.70
2018-11-03T08:27:44.219Z,1025.69
2018-11-03T08:28:44.170Z,1025.71
2018-11-03T08:29:44.123Z,1025.68
2018-11-03T08:30:44.075Z,1025.68
2018-11-03T08:31:44.148Z,1025.62
2018-11-03T08:32:43.979Z,1025.64
2018-11-03T08:33:43.933Z,1025.64
2018-11-03T08:34:43.885Z,1025.66
2018-11-03T08:35:43.836Z,1025.68
2018-11-03T08:36:43.789Z,1025.68
2018-11-03T08:37:43.743Z,1025.65
2018-11-03T08:38:43.693Z,1025.64
2018-11-03T08:39:43.815Z,1025.69
2018-11-03T08:40:43.598Z,1025.66
2018-11-03T08:41:43.554Z,1025.65
2018-11-03T08:42:43.503Z,1025.62
2018-11-03T08:43:43.455Z,1025.62
2018-11-03T08:44:43.408Z,1025.63
2018-11-03T08:45:43.360Z,1025.63
2018-11-03T08:46:43.312Z,1025.62
2018-11-03T08:47:43.265Z,1025.61
2018-11-03T08:48:43.302Z,1025.62
2018-11-03T08:49:43.170Z,1025.64
2018-11-03T08:50:43.122Z,1025.62
2018-11-03T08:51:43.075Z,1025.62
2018-11-03T08:52:43.028Z,1025.72
2018-11-03T08:53:42.980Z,1025.69
2018-11-03T08:54:42.937Z,1025.71
2018-11-03T08:55:42.890Z,1025.73
2018-11-03T08:56:42.837Z,1025.73
2018-11-03T08:57:42.790Z,1025.72
2018-11-03T08:58:42.742Z,1025.71
2018-11-03T08:59:42.835Z,1025.70
2018-11-03T09:00:42.647Z,1025.74
2018-11-03T09:01:42.600Z,1025.75
2018-11-03T09:02:42.551Z,1025.74
2018-11-03T09:03:42.506Z,1025.73
2018-11-03T09:04:42.457Z,1025.73
2018-11-03T09:05:42.410Z,1025.75
2018-11-03T09:06:42.455Z,1025.74
2018-11-03T09:07:42.314Z,1025.79
2018-11-03T09:08:42.266Z,1025.79
2018-11-03T09:09:42.220Z,1025.88
2018-11-03T09:10:42.173Z,1025.86
2018-11-03T09:11:42.124Z,1025.85
2018-11-03T09:12:42.077Z,1025.83
2018-11-03T09:13:42.079Z,1025.87
2018-11-03T09:14:42.018Z,1025.89
2018-11-03T09:15:41.940Z,1025.92
2018-11-03T09:16:41.887Z,1025.94
2018-11-03T09:17:41.840Z,1025.95
2018-11-03T09:18:41.792Z,1025.90
2018-11-03T09:19:41.744Z,1025.93
2018-11-03T09:20:41.711Z,1025.88
2018-11-03T09:21:41.696Z,1025.87
2018-11-03T09:22:41.656Z,1025.88
2018-11-03T09:23:41.555Z,1025.90
2018-11-03T09:24:41.508Z,1025.90
2018-11-03T09:25:41.480Z,1025.89
2018-11-03T09:26:41.413Z,1025.85
2018-11-03T09:27:41.367Z,1025.91
2018-11-03T09:28:41.318Z,1025.90
2018-11-03T09:29:41.272Z,1025.94
2018-11-03T09:30:41.223Z,1025.95
2018-11-03T09:31:41.179Z,1025.94
2018-11-03T09:32:41.137Z,1025.95
2018-11-03T09:33:41.081Z,1025.97
2018-11-03T09:34:41.147Z,1025.98
2018-11-03T09:35:40.985Z,1025.98
2018-11-03T09:36:40.942Z,1025.95
2018-11-03T09:37:40.891Z,1025.92
2018-11-03T09:38:40.972Z,1025.94
2018-11-03T09:39:40.812Z,1025.95
2018-11-03T09:40:40.749Z,1025.98
2018-11-03T09:41:40.701Z,1025.97
2018-11-03T09:42:40.669Z,1025.95
2018-11-03T09:43:40.656Z,1026.02
2018-11-03T09:44:40.560Z,1025.97
2018-11-03T09:45:40.512Z,1025.97
2018-11-03T09:46:40.464Z,1025.95
2018-11-03T09:47:40.419Z,1025.92
2018-11-03T09:48:40.374Z,1025.95
2018-11-03T09:49:40.322Z,1025.96
2018-11-03T09:50:40.411Z,1025.93
2018-11-03T09:51:40.227Z,1025.93
2018-11-03T09:52:40.180Z,1025.91
2018-11-03T09:53:40.133Z,1025.91
2018-11-03T09:54:40.086Z,1025.93
2018-11-03T09:55:40.043Z,1025.89
2018-11-03T09:56:40.086Z,1025.89
2018-11-03T09:57:39.943Z,1025.88
2018-11-03T09:58:39.894Z,1025.87
2018-11-03T09:59:39.848Z,1025.87
2018-11-03T10:00:39.801Z,1025.85
2018-11-03T10:01:39.754Z,1025.86
2018-11-03T10:02:39.706Z,1025.85
2018-11-03T10:03:39.679Z,1025.85
2018-11-03T10:04:39.612Z,1025.86
2018-11-03T10:05:39.565Z,1025.87
2018-11-03T10:06:39.592Z,1025.88
2018-11-03T10:07:39.469Z,1025.84
2018-11-03T10:08:39.422Z,1025.88
2018-11-03T10:09:39.379Z,1025.86
2018-11-03T10:10:39.327Z,1025.85
2018-11-03T10:11:39.305Z,1025.84
2018-11-03T10:12:39.232Z,1025.80
2018-11-03T10:13:39.188Z,1025.79
2018-11-03T10:14:39.137Z,1025.77
2018-11-03T10:15:39.109Z,1025.73
2018-11-03T10:16:39.044Z,1025.71
2018-11-03T10:17:38.996Z,1025.67
2018-11-03T10:18:38.948Z,1025.69
2018-11-03T10:19:38.917Z,1025.67
2018-11-03T10:20:38.854Z,1025.67
2018-11-03T10:21:38.807Z,1025.64
2018-11-03T10:22:38.788Z,1025.62
2018-11-03T10:23:38.712Z,1025.66
2018-11-03T10:24:38.664Z,1025.65
2018-11-03T10:25:38.617Z,1025.70
2018-11-03T10:26:38.569Z,1025.71
2018-11-03T10:27:38.522Z,1025.69
2018-11-03T10:28:38.474Z,1025.69
2018-11-03T10:29:38.427Z,1025.69
2018-11-03T10:30:38.380Z,1025.67
2018-11-03T10:31:38.332Z,1025.68
2018-11-03T10:32:38.285Z,1025.71
2018-11-03T10:33:38.352Z,1025.70
2018-11-03T10:34:38.194Z,1025.71
2018-11-03T10:35:38.143Z,1025.75
2018-11-03T10:36:38.096Z,1025.74
2018-11-03T10:37:38.055Z,1025.71
2018-11-03T10:38:38.001Z,1025.71
2018-11-03T10:39:37.973Z,1025.72
2018-11-03T10:40:37.906Z,1025.71
2018-11-03T10:41:37.892Z,1025.72
2018-11-03T10:42:37.811Z,1025.73
2018-11-03T10:43:37.764Z,1025.70
2018-11-03T10:44:37.717Z,1025.72
2018-11-03T10:45:37.670Z,1025.68
2018-11-03T10:46:37.622Z,1025.73
2018-11-03T10:47:37.622Z,1025.75
2018-11-03T10:48:37.528Z,1025.74
2018-11-03T10:49:37.481Z,1025.73
2018-11-03T10:50:37.432Z,1025.75
2018-11-03T10:51:37.385Z,1025.76
2018-11-03T10:52:37.338Z,1025.73
2018-11-03T10:53:37.337Z,1025.74
2018-11-03T10:54:37.244Z,1025.74
2018-11-03T10:55:37.196Z,1025.72
2018-11-03T10:56:37.151Z,1025.72
2018-11-03T10:57:37.133Z,1025.75
2018-11-03T10:58:37.054Z,1025.73
2018-11-03T10:59:37.006Z,1025.68
2018-11-03T11:00:36.959Z,1025.66
2018-11-03T11:01:36.912Z,1025.69
2018-11-03T11:02:36.866Z,1025.68
2018-11-03T11:03:36.837Z,1025.66
2018-11-03T11:04:36.769Z,1025.66
2018-11-03T11:05:36.723Z,1025.69
2018-11-03T11:06:36.674Z,1025.68
2018-11-03T11:07:36.627Z,1025.69
2018-11-03T11:08:36.580Z,1025.67
2018-11-03T11:09:36.536Z,1025.64
2018-11-03T11:10:36.485Z,1025.58
2018-11-03T11:11:36.437Z,1025.56
2018-11-03T11:12:36.390Z,1025.56
2018-11-03T11:13:36.343Z,1025.56
2018-11-03T11:14:36.296Z,1025.51
2018-11-03T11:15:36.252Z,1025.48
2018-11-03T11:16:36.212Z,1025.51
2018-11-03T11:17:36.154Z,1025.43
2018-11-03T11:18:36.106Z,1025.41
2018-11-03T11:19:36.059Z,1025.39
2018-11-03T11:20:36.054Z,1025.39
2018-11-03T11:21:35.965Z,1025.35
2018-11-03T11:22:35.917Z,1025.37
2018-11-03T11:23:36.005Z,1025.38
2018-11-03T11:24:35.867Z,1025.36
2018-11-03T11:25:35.775Z,1025.39
2018-11-03T11:26:35.727Z,1025.38
2018-11-03T11:27:35.679Z,1025.36
2018-11-03T11:28:35.633Z,1025.38
2018-11-03T11:29:35.586Z,1025.43
2018-11-03T11:30:35.536Z,1025.35
2018-11-03T11:31:35.641Z,1025.38
2018-11-03T11:32:35.490Z,1025.35
2018-11-03T11:33:35.397Z,1025.38
2018-11-03T11:34:35.350Z,1025.35
2018-11-03T11:35:35.302Z,1025.34
2018-11-03T11:36:35.253Z,1025.31
2018-11-03T11:37:35.328Z,1025.30
2018-11-03T11:38:35.217Z,1025.31
2018-11-03T11:39:35.111Z,1025.28
2018-11-03T11:40:35.064Z,1025.27
2018-11-03T11:41:35.017Z,1025.29
2018-11-03T11:42:34.969Z,1025.30
2018-11-03T11:43:34.922Z,1025.30
2018-11-03T11:44:34.874Z,1025.26
2018-11-03T11:45:34.828Z,1025.31
2018-11-03T11:46:34.782Z,1025.27
2018-11-03T11:47:34.732Z,1025.27
2018-11-03T11:48:34.684Z,1025.26
2018-11-03T11:49:34.637Z,1025.23
2018-11-03T11:50:34.589Z,1025.22
2018-11-03T11:51:34.542Z,1025.23
2018-11-03T11:52:34.498Z,1025.23
2018-11-03T11:53:34.548Z,1025.20
2018-11-03T11:54:34.400Z,1025.16
2018-11-03T11:55:34.352Z,1025.21
2018-11-03T11:56:34.305Z,1025.23
2018-11-03T11:57:34.258Z,1025.22
2018-11-03T11:58:34.210Z,1025.26
2018-11-03T11:59:34.163Z,1025.29
2018-11-03T12:00:34.129Z,1025.28
2018-11-03T12:01:34.070Z,1025.30
2018-11-03T12:02:34.237Z,1025.28
2018-11-03T12:03:33.974Z,1025.29
2018-11-03T12:04:33.926Z,1025.26